createdAt,value
2016-11-22T00:00:15.830Z,22.47
2016-11-22T00:01:15.870Z,22.42
2016-11-22T00:02:15.575Z,22.36
2016-11-22T00:03:15.904Z,22.37
2016-11-22T00:04:15.944Z,22.4
2016-11-22T00:05:15.969Z,22.36
2016-11-22T00:06:16.006Z,22.36
2016-11-22T00:07:15.710Z,22.33
2016-11-22T00:08:16.051Z,22.31
2016-11-22T00:09:16.080Z,22.35
2016-11-22T00:10:15.796Z,22.33
2016-11-22T00:11:15.845Z,22.4
2016-11-22T00:12:16.158Z,22.27
2016-11-22T00:13:16.187Z,22.25
2016-11-22T00:14:15.919Z,22.27
2016-11-22T00:15:15.940Z,22.25
2016-11-22T00:16:16.272Z,22.27
2016-11-22T00:17:16.341Z,22.25
2016-11-22T00:18:16.023Z,22.27
2016-11-22T00:19:16.355Z,22.21
2016-11-22T00:20:16.392Z,22.3
2016-11-22T00:21:16.416Z,22.27
2016-11-22T00:22:16.141Z,22.3
2016-11-22T00:23:16.181Z,22.31
2016-11-22T00:24:15.895Z,22.31
2016-11-22T00:25:16.544Z,22.28
2016-11-22T00:26:16.244Z,22.28
2016-11-22T00:27:15.980Z,22.24
2016-11-22T00:28:16.601Z,22.21
2016-11-22T00:29:16.333Z,22.28
2016-11-22T00:30:16.658Z,22.28
2016-11-22T00:31:16.691Z,22.3
2016-11-22T00:32:16.420Z,22.27
2016-11-22T00:33:16.756Z,22.24
2016-11-22T00:34:16.477Z,22.27
2016-11-22T00:35:16.868Z,22.28
2016-11-22T00:36:16.842Z,22.27
2016-11-22T00:37:16.855Z,22.27
2016-11-22T00:38:16.892Z,22.24
2016-11-22T00:39:16.616Z,22.31
2016-11-22T00:40:16.954Z,22.25
2016-11-22T00:41:16.990Z,22.24
2016-11-22T00:42:16.999Z,22.24
2016-11-22T00:43:17.055Z,22.24
2016-11-22T00:44:16.760Z,22.24
2016-11-22T00:45:16.789Z,22.28
2016-11-22T00:46:17.111Z,22.3
2016-11-22T00:47:17.138Z,22.27
2016-11-22T00:48:16.867Z,22.3
2016-11-22T00:49:17.208Z,22.22
2016-11-22T00:50:16.924Z,22.24
2016-11-22T00:51:16.967Z,22.27
2016-11-22T00:52:17.283Z,22.21
2016-11-22T00:53:17.307Z,22.2
2016-11-22T00:54:16.732Z,22.27
2016-11-22T00:55:17.365Z,22.2
2016-11-22T00:56:17.098Z,22.22
2016-11-22T00:57:17.116Z,22.24
2016-11-22T00:58:17.460Z,22.25
2016-11-22T00:59:17.183Z,22.2
2016-11-22T01:00:17.510Z,22.21
2016-11-22T01:01:17.553Z,22.18
2016-11-22T01:02:17.569Z,22.15
2016-11-22T01:03:17.590Z,22.25
2016-11-22T01:04:17.636Z,22.14
2016-11-22T01:05:17.362Z,22.14
2016-11-22T01:06:17.673Z,22.15
2016-11-22T01:07:17.713Z,22.17
2016-11-22T01:08:17.746Z,22.17
2016-11-22T01:09:17.467Z,22.15
2016-11-22T01:10:17.784Z,22.17
2016-11-22T01:11:17.825Z,22.12
2016-11-22T01:12:17.537Z,22.15
2016-11-22T01:13:17.578Z,22.12
2016-11-22T01:14:17.903Z,22.17
2016-11-22T01:15:17.939Z,22.12
2016-11-22T01:16:17.972Z,22.12
2016-11-22T01:17:17.692Z,22.15
2016-11-22T01:18:18.021Z,22.14
2016-11-22T01:19:17.763Z,22.17
2016-11-22T01:20:17.767Z,22.17
2016-11-22T01:21:18.097Z,22.14
2016-11-22T01:22:17.521Z,22.14
2016-11-22T01:23:18.171Z,22.12
2016-11-22T01:24:17.890Z,22.14
2016-11-22T01:25:17.920Z,22.1
2016-11-22T01:26:18.244Z,22.15
2016-11-22T01:27:17.969Z,22.1
2016-11-22T01:28:18.333Z,22.15
2016-11-22T01:29:18.035Z,22.15
2016-11-22T01:30:18.360Z,22.14
2016-11-22T01:31:18.085Z,22.09
2016-11-22T01:32:18.417Z,22.05
2016-11-22T01:33:17.841Z,22.12
2016-11-22T01:34:18.162Z,22.07
2016-11-22T01:35:18.516Z,22.09
2016-11-22T01:36:18.528Z,22.07
2016-11-22T01:37:18.253Z,22
2016-11-22T01:38:18.273Z,22.09
2016-11-22T01:39:18.618Z,22.12
2016-11-22T01:40:18.639Z,22.07
2016-11-22T01:41:18.362Z,22.05
2016-11-22T01:42:18.385Z,22.14
2016-11-22T01:43:18.721Z,22.1
2016-11-22T01:44:18.462Z,22.07
2016-11-22T01:45:18.500Z,22.06
2016-11-22T01:46:18.508Z,22.05
2016-11-22T01:47:18.540Z,22.07
2016-11-22T01:48:18.870Z,22.05
2016-11-22T01:49:18.915Z,22
2016-11-22T01:50:18.919Z,22.05
2016-11-22T01:51:18.960Z,22.05
2016-11-22T01:52:18.985Z,22.06
2016-11-22T01:53:19.013Z,22.05
2016-11-22T01:54:19.061Z,22.05
2016-11-22T01:55:19.062Z,22.07
2016-11-22T01:56:19.091Z,22.09
2016-11-22T01:57:19.124Z,22.07
2016-11-22T01:58:18.835Z,22.06
2016-11-22T01:59:18.865Z,21.98
2016-11-22T02:00:19.205Z,22.05
2016-11-22T02:01:18.942Z,22.02
2016-11-22T02:02:19.255Z,22.03
2016-11-22T02:03:18.988Z,22.09
2016-11-22T02:04:19.012Z,22.03
2016-11-22T02:05:19.041Z,22.05
2016-11-22T02:06:19.051Z,22.02
2016-11-22T02:07:19.082Z,22.14
2016-11-22T02:08:19.423Z,22.02
2016-11-22T02:09:19.452Z,22.05
2016-11-22T02:10:18.872Z,22
2016-11-22T02:11:19.505Z,22.12
2016-11-22T02:12:19.534Z,22.09
2016-11-22T02:13:19.578Z,22.02
2016-11-22T02:14:19.586Z,22.05
2016-11-22T02:15:19.319Z,22.07
2016-11-22T02:16:19.339Z,21.96
2016-11-22T02:17:19.664Z,22.05
2016-11-22T02:18:19.089Z,21.96
2016-11-22T02:19:19.743Z,22.06
2016-11-22T02:20:19.457Z,22
2016-11-22T02:21:19.783Z,21.96
2016-11-22T02:22:19.827Z,22.02
2016-11-22T02:23:19.239Z,22.03
2016-11-22T02:24:19.868Z,22.06
2016-11-22T02:25:19.594Z,22.02
2016-11-22T02:26:19.622Z,21.9
2016-11-22T02:27:19.654Z,21.99
2016-11-22T02:28:19.971Z,22
2016-11-22T02:29:19.696Z,21.92
2016-11-22T02:30:19.421Z,21.96
2016-11-22T02:31:20.061Z,21.9
2016-11-22T02:32:20.085Z,22
2016-11-22T02:33:19.817Z,21.88
2016-11-22T02:34:19.535Z,21.91
2016-11-22T02:35:19.869Z,21.88
2016-11-22T02:36:19.595Z,21.84
2016-11-22T02:37:19.936Z,21.9
2016-11-22T02:38:20.261Z,21.84
2016-11-22T02:39:19.989Z,21.92
2016-11-22T02:40:19.709Z,21.9
2016-11-22T02:41:20.026Z,21.86
2016-11-22T02:42:19.757Z,21.88
2016-11-22T02:43:20.403Z,21.86
2016-11-22T02:44:20.120Z,21.98
2016-11-22T02:45:20.150Z,22
2016-11-22T02:46:20.473Z,21.9
2016-11-22T02:47:20.218Z,21.92
2016-11-22T02:48:20.539Z,21.96
2016-11-22T02:49:20.564Z,21.9
2016-11-22T02:50:20.600Z,21.92
2016-11-22T02:51:20.333Z,21.94
2016-11-22T02:57:30.338Z,21.98
2016-11-22T02:58:30.054Z,21.98
2016-11-22T02:59:30.395Z,21.91
2016-11-22T03:00:30.147Z,21.86
2016-11-22T03:01:30.444Z,21.84
2016-11-22T03:02:30.481Z,21.79
2016-11-22T03:03:30.205Z,21.75
2016-11-22T03:04:30.236Z,21.88
2016-11-22T03:05:30.556Z,21.88
2016-11-22T03:06:30.601Z,21.75
2016-11-22T03:07:30.317Z,21.88
2016-11-22T03:08:30.337Z,21.9
2016-11-22T03:09:30.371Z,21.86
2016-11-22T03:10:30.707Z,21.77
2016-11-22T03:11:30.123Z,21.82
2016-11-22T03:12:30.448Z,21.88
2016-11-22T03:13:30.477Z,21.92
2016-11-22T03:14:30.818Z,21.8
2016-11-22T03:15:30.546Z,21.92
2016-11-22T03:16:30.888Z,21.83
2016-11-22T03:17:30.892Z,21.77
2016-11-22T03:18:30.616Z,21.91
2016-11-22T03:19:30.646Z,21.82
2016-11-22T03:20:30.971Z,21.88
2016-11-22T03:21:31.011Z,21.82
2016-11-22T03:22:31.039Z,21.86
2016-11-22T03:23:30.760Z,21.91
2016-11-22T03:24:31.084Z,21.92
2016-11-22T03:25:30.812Z,21.86
2016-11-22T03:26:30.838Z,21.91
2016-11-22T03:27:31.176Z,21.91
2016-11-22T03:28:30.899Z,21.82
2016-11-22T03:29:31.231Z,21.83
2016-11-22T03:30:30.956Z,21.83
2016-11-22T03:31:31.285Z,21.9
2016-11-22T03:32:31.009Z,21.82
2016-11-22T03:33:31.034Z,21.83
2016-11-22T03:34:31.059Z,21.86
2016-11-22T03:35:31.389Z,21.77
2016-11-22T03:36:31.421Z,21.86
2016-11-22T03:37:31.153Z,21.8
2016-11-22T03:38:31.482Z,21.77
2016-11-22T03:39:31.208Z,21.77
2016-11-22T03:40:31.523Z,21.88
2016-11-22T03:41:31.560Z,21.83
2016-11-22T03:42:31.296Z,21.83
2016-11-22T03:43:31.313Z,21.86
2016-11-22T03:44:31.634Z,21.82
2016-11-22T03:45:31.379Z,21.84
2016-11-22T03:46:31.407Z,21.79
2016-11-22T03:47:31.733Z,21.82
2016-11-22T03:48:31.149Z,21.84
2016-11-22T03:49:31.794Z,21.83
2016-11-22T03:50:31.515Z,21.8
2016-11-22T03:51:31.539Z,21.8
2016-11-22T03:52:31.265Z,21.8
2016-11-22T03:53:31.897Z,21.82
2016-11-22T03:54:31.626Z,21.79
2016-11-22T03:55:31.958Z,21.77
2016-11-22T03:56:31.679Z,21.77
2016-11-22T03:57:31.700Z,21.83
2016-11-22T03:58:32.029Z,21.74
2016-11-22T03:59:32.069Z,21.82
2016-11-22T04:00:31.787Z,21.79
2016-11-22T04:01:31.843Z,21.69
2016-11-22T04:02:31.843Z,21.75
2016-11-22T04:03:31.876Z,21.71
2016-11-22T04:04:31.597Z,21.71
2016-11-22T04:05:32.234Z,21.79
2016-11-22T04:06:31.951Z,21.67
2016-11-22T04:07:31.675Z,21.68
2016-11-22T04:08:32.004Z,21.69
2016-11-22T04:09:32.038Z,21.75
2016-11-22T04:10:32.105Z,21.75
2016-11-22T04:11:32.402Z,21.71
2016-11-22T04:12:31.812Z,21.71
2016-11-22T04:13:32.464Z,21.72
2016-11-22T04:14:32.168Z,21.77
2016-11-22T04:15:32.205Z,21.69
2016-11-22T04:16:32.253Z,21.71
2016-11-22T04:17:32.565Z,21.74
2016-11-22T04:18:32.593Z,21.72
2016-11-22T04:19:32.316Z,21.69
2016-11-22T04:20:32.656Z,21.71
2016-11-22T04:21:32.369Z,21.74
2016-11-22T04:22:32.397Z,21.69
2016-11-22T04:23:32.423Z,21.65
2016-11-22T04:24:32.759Z,21.62
2016-11-22T04:25:32.485Z,21.67
2016-11-22T04:26:32.509Z,21.69
2016-11-22T04:27:32.544Z,21.68
2016-11-22T04:28:32.566Z,21.69
2016-11-22T04:29:32.595Z,21.65
2016-11-22T04:30:32.623Z,21.68
2016-11-22T04:31:32.653Z,21.56
2016-11-22T04:32:32.677Z,21.68
2016-11-22T04:33:33.010Z,21.67
2016-11-22T04:34:32.740Z,21.67
2016-11-22T04:35:32.759Z,21.64
2016-11-22T04:36:32.789Z,21.64
2016-11-22T04:37:32.505Z,21.67
2016-11-22T04:38:33.152Z,21.71
2016-11-22T04:39:32.876Z,21.64
2016-11-22T04:40:33.200Z,21.54
2016-11-22T04:41:32.925Z,21.65
2016-11-22T04:42:32.954Z,21.65
2016-11-22T04:43:33.286Z,21.67
2016-11-22T04:44:33.311Z,21.56
2016-11-22T04:45:33.348Z,21.64
2016-11-22T04:46:33.373Z,21.59
2016-11-22T04:47:33.390Z,21.56
2016-11-22T04:48:33.423Z,21.59
2016-11-22T04:49:33.451Z,21.58
2016-11-22T04:50:33.492Z,21.59
2016-11-22T04:51:33.514Z,21.68
2016-11-22T04:52:33.535Z,21.62
2016-11-22T04:53:32.955Z,21.65
2016-11-22T04:54:32.979Z,21.64
2016-11-22T04:55:33.616Z,21.59
2016-11-22T04:56:33.344Z,21.59
2016-11-22T04:57:33.401Z,21.62
2016-11-22T04:58:33.394Z,21.69
2016-11-22T04:59:33.424Z,21.61
2016-11-22T05:00:33.460Z,21.61
2016-11-22T05:01:33.789Z,21.61
2016-11-22T05:02:33.206Z,21.65
2016-11-22T05:03:33.527Z,21.54
2016-11-22T05:04:33.871Z,21.69
2016-11-22T05:05:33.589Z,21.61
2016-11-22T05:06:33.926Z,21.53
2016-11-22T05:07:33.941Z,21.59
2016-11-22T05:08:34.015Z,21.58
2016-11-22T05:09:34.016Z,21.62
2016-11-22T05:10:34.030Z,21.58
2016-11-22T05:11:33.462Z,21.58
2016-11-22T05:12:33.796Z,21.61
2016-11-22T05:13:33.818Z,21.61
2016-11-22T05:14:33.841Z,21.59
2016-11-22T05:15:34.173Z,21.61
2016-11-22T05:16:34.201Z,21.62
2016-11-22T05:17:34.236Z,21.52
2016-11-22T05:18:33.947Z,21.56
2016-11-22T05:19:34.281Z,21.58
2016-11-22T05:20:34.313Z,21.59
2016-11-22T05:21:33.735Z,21.56
2016-11-22T05:22:34.063Z,21.5
2016-11-22T05:23:34.400Z,21.56
2016-11-22T05:24:34.117Z,21.54
2016-11-22T05:25:34.450Z,21.54
2016-11-22T05:26:34.490Z,21.49
2016-11-22T05:27:34.504Z,21.54
2016-11-22T05:28:34.232Z,21.61
2016-11-22T05:29:34.256Z,21.58
2016-11-22T05:30:34.286Z,21.59
2016-11-22T05:31:34.631Z,21.56
2016-11-22T05:32:34.340Z,21.61
2016-11-22T05:33:34.372Z,21.54
2016-11-22T05:34:34.697Z,21.62
2016-11-22T05:35:34.426Z,21.61
2016-11-22T05:36:34.794Z,21.58
2016-11-22T05:37:34.475Z,21.61
2016-11-22T05:38:34.514Z,21.69
2016-11-22T05:39:34.854Z,21.58
2016-11-22T05:40:34.558Z,21.61
2016-11-22T05:41:34.892Z,21.62
2016-11-22T05:42:34.920Z,21.58
2016-11-22T05:43:34.948Z,21.67
2016-11-22T05:44:35.014Z,21.72
2016-11-22T05:45:34.699Z,21.74
2016-11-22T05:46:34.743Z,21.71
2016-11-22T05:47:35.080Z,21.72
2016-11-22T05:48:34.473Z,21.69
2016-11-22T05:49:34.813Z,21.74
2016-11-22T05:50:35.138Z,21.74
2016-11-22T05:51:35.175Z,21.79
2016-11-22T05:52:34.594Z,21.82
2016-11-22T05:53:34.930Z,21.86
2016-11-22T05:54:35.258Z,21.8
2016-11-22T05:55:35.287Z,21.91
2016-11-22T05:56:34.703Z,21.82
2016-11-22T05:57:35.040Z,21.84
2016-11-22T05:58:35.377Z,21.86
2016-11-22T05:59:35.406Z,21.82
2016-11-22T06:00:35.127Z,21.77
2016-11-22T06:01:35.444Z,22
2016-11-22T06:02:35.480Z,22
2016-11-22T06:03:34.898Z,21.96
2016-11-22T06:04:35.230Z,22.02
2016-11-22T06:05:35.554Z,21.92
2016-11-22T06:06:35.295Z,22.03
2016-11-22T06:07:35.321Z,22.03
2016-11-22T06:08:35.329Z,22.03
2016-11-22T06:09:35.702Z,22.05
2016-11-22T06:10:35.087Z,22.03
2016-11-22T06:11:35.740Z,22.02
2016-11-22T06:12:35.759Z,22.1
2016-11-22T06:13:35.782Z,22.07
2016-11-22T06:14:35.502Z,22.06
2016-11-22T06:15:35.530Z,22.1
2016-11-22T06:16:35.572Z,22.05
2016-11-22T06:17:35.592Z,22.05
2016-11-22T06:18:35.329Z,22.1
2016-11-22T06:19:35.654Z,22.06
2016-11-22T06:20:35.683Z,22.17
2016-11-22T06:21:35.715Z,22.1
2016-11-22T06:22:35.763Z,22.17
2016-11-22T06:23:35.764Z,22.12
2016-11-22T06:24:36.093Z,22.17
2016-11-22T06:25:35.506Z,22.18
2016-11-22T06:26:36.155Z,22.1
2016-11-22T06:27:35.872Z,22.22
2016-11-22T06:28:36.204Z,22.24
2016-11-22T06:29:36.228Z,22.25
2016-11-22T06:30:36.246Z,22.21
2016-11-22T06:31:36.298Z,22.3
2016-11-22T06:32:36.017Z,22.31
2016-11-22T06:33:36.040Z,22.3
2016-11-22T06:34:36.068Z,22.3
2016-11-22T06:35:36.401Z,22.27
2016-11-22T06:36:36.125Z,22.3
2016-11-22T06:37:35.855Z,22.28
2016-11-22T06:38:36.479Z,22.35
2016-11-22T06:39:36.211Z,22.3
2016-11-22T06:40:36.237Z,22.37
2016-11-22T06:41:36.261Z,22.39
2016-11-22T06:42:35.986Z,22.4
2016-11-22T06:43:36.627Z,22.4
2016-11-22T06:44:36.348Z,22.33
2016-11-22T06:45:36.676Z,22.36
2016-11-22T06:46:36.316Z,22.43
2016-11-22T06:47:36.734Z,22.37
2016-11-22T06:48:36.463Z,22.4
2016-11-22T06:49:36.484Z,22.39
2016-11-22T06:50:36.213Z,22.39
2016-11-22T06:51:36.845Z,22.42
2016-11-22T06:52:36.871Z,22.46
2016-11-22T06:53:36.899Z,22.47
2016-11-22T06:54:36.972Z,22.36
2016-11-22T06:55:36.965Z,22.42
2016-11-22T06:56:36.381Z,22.37
2016-11-22T06:57:37.013Z,22.39
2016-11-22T06:58:36.730Z,22.43
2016-11-22T06:59:37.072Z,22.39
2016-11-22T07:00:37.095Z,22.43
2016-11-22T07:01:36.829Z,22.4
2016-11-22T07:02:36.853Z,22.47
2016-11-22T07:03:37.182Z,22.49
2016-11-22T07:04:37.210Z,22.42
2016-11-22T07:05:36.972Z,22.47
2016-11-22T07:06:37.269Z,22.42
2016-11-22T07:07:37.293Z,22.45
2016-11-22T07:08:37.330Z,22.47
2016-11-22T07:09:37.358Z,22.46
2016-11-22T07:10:37.083Z,22.49
2016-11-22T07:11:37.415Z,22.52
2016-11-22T07:12:37.436Z,22.54
2016-11-22T07:13:37.161Z,22.52
2016-11-22T07:14:37.493Z,22.6
2016-11-22T07:15:37.234Z,22.6
2016-11-22T07:16:37.251Z,22.52
2016-11-22T07:17:37.267Z,22.61
2016-11-22T07:18:37.300Z,22.61
2016-11-22T07:19:37.653Z,22.61
2016-11-22T07:20:37.670Z,22.55
2016-11-22T07:21:37.082Z,22.61
2016-11-22T07:22:37.715Z,22.58
2016-11-22T07:23:37.753Z,22.62
2016-11-22T07:24:37.174Z,22.61
2016-11-22T07:25:37.535Z,22.65
2016-11-22T07:26:37.838Z,22.67
2016-11-22T07:27:37.862Z,22.65
2016-11-22T07:28:37.595Z,22.6
2016-11-22T07:29:37.924Z,22.62
2016-11-22T07:30:37.645Z,22.7
2016-11-22T07:31:37.986Z,22.72
2016-11-22T07:32:37.998Z,22.72
2016-11-22T07:33:38.031Z,22.68
2016-11-22T07:34:37.763Z,22.68
2016-11-22T07:35:37.783Z,22.58
2016-11-22T07:36:37.813Z,22.67
2016-11-22T07:37:37.541Z,22.65
2016-11-22T07:38:38.178Z,22.67
2016-11-22T07:39:37.906Z,22.73
2016-11-22T07:40:37.927Z,22.61
2016-11-22T07:41:38.252Z,22.7
2016-11-22T07:42:38.281Z,22.7
2016-11-22T07:43:37.697Z,22.57
2016-11-22T07:44:38.039Z,22.72
2016-11-22T07:45:38.067Z,22.7
2016-11-22T07:46:38.079Z,22.58
2016-11-22T07:47:38.120Z,22.73
2016-11-22T07:48:38.183Z,22.61
2016-11-22T07:49:38.190Z,22.73
2016-11-22T07:50:38.519Z,22.64
2016-11-22T07:51:38.247Z,22.64
2016-11-22T07:52:38.255Z,22.65
2016-11-22T07:53:38.605Z,22.57
2016-11-22T07:54:38.317Z,22.61
2016-11-22T07:55:38.651Z,22.65
2016-11-22T07:56:38.691Z,22.6
2016-11-22T07:57:38.719Z,22.65
2016-11-22T07:58:38.740Z,22.61
2016-11-22T07:59:38.473Z,22.6
2016-11-22T08:00:38.797Z,22.55
2016-11-22T08:01:38.526Z,22.65
2016-11-22T08:02:38.850Z,22.62
2016-11-22T08:03:38.887Z,22.62
2016-11-22T08:04:38.616Z,22.62
2016-11-22T08:05:38.960Z,22.57
2016-11-22T08:06:38.655Z,22.58
2016-11-22T08:07:38.698Z,22.61
2016-11-22T08:08:38.716Z,22.61
2016-11-22T08:09:39.055Z,22.54
2016-11-22T08:10:39.088Z,22.6
2016-11-22T08:11:38.801Z,22.49
2016-11-22T08:12:38.833Z,22.6
2016-11-22T08:13:38.850Z,22.51
2016-11-22T08:14:38.874Z,22.55
2016-11-22T08:15:39.215Z,22.52
2016-11-22T08:16:38.972Z,22.37
2016-11-22T08:17:39.277Z,22.46
2016-11-22T08:18:38.693Z,22.39
2016-11-22T08:19:39.334Z,22.42
2016-11-22T08:20:39.367Z,22.36
2016-11-22T08:21:39.395Z,22.39
2016-11-22T08:22:39.104Z,22.37
2016-11-22T08:23:39.436Z,22.39
2016-11-22T08:24:39.182Z,22.36
2016-11-22T08:25:38.892Z,22.33
2016-11-22T08:26:39.527Z,22.31
2016-11-22T08:27:39.251Z,22.31
2016-11-22T08:28:38.976Z,22.31
2016-11-22T08:29:39.601Z,22.25
2016-11-22T08:30:39.634Z,22.28
2016-11-22T08:31:39.678Z,22.28
2016-11-22T08:32:39.703Z,22.27
2016-11-22T08:33:39.715Z,22.28
2016-11-22T08:34:39.748Z,22.21
2016-11-22T08:35:39.494Z,22.24
2016-11-22T08:36:39.817Z,22.17
2016-11-22T08:37:39.535Z,22.18
2016-11-22T08:38:39.567Z,22.14
2016-11-22T08:39:39.284Z,22.17
2016-11-22T08:40:39.608Z,22.09
2016-11-22T08:41:39.969Z,22.14
2016-11-22T08:42:39.668Z,22.03
2016-11-22T08:43:39.698Z,22.07
2016-11-22T08:44:40.044Z,22.02
2016-11-22T08:45:40.039Z,22
2016-11-22T08:46:40.104Z,21.98
2016-11-22T08:47:39.810Z,21.9
2016-11-22T08:48:40.134Z,21.99
2016-11-22T08:49:40.179Z,21.9
2016-11-22T08:50:39.899Z,21.94
2016-11-22T08:51:40.228Z,21.96
2016-11-22T08:52:40.714Z,21.94
2016-11-22T08:53:40.285Z,21.96
2016-11-22T08:54:40.307Z,22
2016-11-22T08:55:39.747Z,22
2016-11-22T08:56:40.363Z,21.98
2016-11-22T08:57:39.780Z,22
2016-11-22T08:58:40.429Z,21.91
2016-11-22T08:59:40.141Z,21.94
2016-11-22T09:00:40.179Z,21.82
2016-11-22T09:01:40.195Z,21.82
2016-11-22T09:02:40.220Z,21.83
2016-11-22T09:03:40.569Z,21.77
2016-11-22T09:04:40.278Z,21.8
2016-11-22T09:05:40.318Z,21.69
2016-11-22T09:06:40.646Z,21.54
2016-11-22T09:07:40.372Z,21.59
2016-11-22T09:08:40.696Z,21.47
2016-11-22T09:09:40.437Z,21.37
2016-11-22T09:10:40.754Z,21.42
2016-11-22T09:11:40.174Z,21.37
2016-11-22T09:12:40.815Z,21.37
2016-11-22T09:13:40.552Z,21.32
2016-11-22T09:14:40.564Z,21.42
2016-11-22T09:15:40.900Z,21.38
2016-11-22T09:16:40.614Z,21.34
2016-11-22T09:17:40.950Z,21.49
2016-11-22T09:18:40.699Z,21.47
2016-11-22T09:19:40.703Z,21.53
2016-11-22T09:20:40.728Z,21.47
2016-11-22T09:21:41.057Z,21.62
2016-11-22T09:22:40.786Z,21.56
2016-11-22T09:23:41.115Z,21.56
2016-11-22T09:24:40.844Z,21.59
2016-11-22T09:25:41.180Z,21.54
2016-11-22T09:26:41.214Z,21.65
2016-11-22T09:27:41.229Z,21.67
2016-11-22T09:28:41.263Z,21.68
2016-11-22T09:29:41.292Z,21.64
2016-11-22T09:30:41.315Z,21.67
2016-11-22T09:31:41.044Z,21.71
2016-11-22T09:32:41.365Z,21.79
2016-11-22T09:33:41.446Z,21.8
2016-11-22T09:34:41.423Z,21.74
2016-11-22T09:35:40.844Z,21.77
2016-11-22T09:36:41.487Z,21.8
2016-11-22T09:37:41.512Z,21.79
2016-11-22T09:38:41.230Z,21.8
2016-11-22T09:39:41.270Z,21.82
2016-11-22T09:40:41.283Z,21.82
2016-11-22T09:41:41.346Z,21.84
2016-11-22T09:42:41.337Z,21.9
2016-11-22T09:43:41.369Z,21.86
2016-11-22T09:44:41.399Z,21.9
2016-11-22T09:45:41.434Z,21.9
2016-11-22T09:46:41.139Z,21.88
2016-11-22T09:47:41.792Z,21.86
2016-11-22T09:48:41.513Z,21.9
2016-11-22T09:49:41.550Z,21.77
2016-11-22T09:50:41.257Z,21.83
2016-11-22T09:51:41.595Z,21.77
2016-11-22T09:52:41.931Z,21.77
2016-11-22T09:53:41.350Z,21.94
2016-11-22T09:54:41.677Z,21.79
2016-11-22T09:55:42.027Z,21.91
2016-11-22T09:56:41.723Z,21.86
2016-11-22T09:57:41.783Z,21.98
2016-11-22T09:58:41.796Z,21.9
2016-11-22T09:59:42.129Z,21.92
2016-11-22T10:00:41.842Z,21.96
2016-11-22T10:01:42.210Z,21.88
2016-11-22T10:02:41.600Z,21.92
2016-11-22T10:03:42.244Z,21.86
2016-11-22T10:04:42.266Z,21.86
2016-11-22T10:05:41.985Z,21.96
2016-11-22T10:06:41.698Z,21.96
2016-11-22T10:07:42.344Z,21.92
2016-11-22T10:08:42.080Z,21.88
2016-11-22T10:09:42.092Z,21.92
2016-11-22T10:10:42.117Z,21.91
2016-11-22T10:11:42.174Z,21.9
2016-11-22T10:12:42.186Z,21.98
2016-11-22T10:13:42.216Z,21.91
2016-11-22T10:14:42.531Z,21.86
2016-11-22T10:15:42.260Z,21.96
2016-11-22T10:16:41.997Z,21.88
2016-11-22T10:17:42.342Z,21.98
2016-11-22T10:18:42.343Z,21.91
2016-11-22T10:19:42.384Z,21.91
2016-11-22T10:20:42.392Z,21.94
2016-11-22T10:21:42.433Z,21.92
2016-11-22T10:22:42.759Z,21.88
2016-11-22T10:23:42.827Z,21.83
2016-11-22T10:24:42.519Z,21.8
2016-11-22T10:25:42.880Z,21.84
2016-11-22T10:26:42.874Z,21.86
2016-11-22T10:27:42.601Z,21.9
2016-11-22T10:28:42.917Z,21.91
2016-11-22T10:29:42.662Z,21.86
2016-11-22T10:30:42.983Z,21.83
2016-11-22T10:31:43.009Z,21.83
2016-11-22T10:32:42.842Z,21.94
2016-11-22T10:33:42.781Z,21.83
2016-11-22T10:34:43.116Z,21.88
2016-11-22T10:35:43.128Z,21.91
2016-11-22T10:36:43.156Z,21.83
2016-11-22T10:37:42.877Z,21.82
2016-11-22T10:38:43.212Z,21.98
2016-11-22T10:39:42.938Z,21.83
2016-11-22T10:40:42.659Z,21.92
2016-11-22T10:41:43.291Z,21.94
2016-11-22T10:42:43.023Z,21.84
2016-11-22T10:43:43.365Z,21.77
2016-11-22T10:44:43.074Z,21.8
2016-11-22T10:45:43.411Z,21.94
2016-11-22T10:46:43.443Z,21.9
2016-11-22T10:47:43.148Z,21.86
2016-11-22T10:48:42.880Z,21.94
2016-11-22T10:49:43.221Z,21.82
2016-11-22T10:50:43.542Z,21.86
2016-11-22T10:51:43.289Z,21.92
2016-11-22T10:52:43.296Z,21.8
2016-11-22T10:53:43.621Z,21.84
2016-11-22T10:54:43.645Z,21.84
2016-11-22T10:55:43.387Z,21.91
2016-11-22T10:56:43.707Z,21.91
2016-11-22T10:57:43.739Z,21.8
2016-11-22T10:58:43.765Z,21.75
2016-11-22T10:59:43.805Z,21.88
2016-11-22T11:00:43.517Z,21.94
2016-11-22T11:01:43.857Z,21.92
2016-11-22T11:02:43.571Z,21.8
2016-11-22T11:03:43.612Z,21.91
2016-11-22T11:04:43.932Z,21.79
2016-11-22T11:05:43.961Z,21.9
2016-11-22T11:06:43.677Z,21.88
2016-11-22T11:07:44.030Z,21.94
2016-11-22T11:08:43.787Z,21.84
2016-11-22T11:09:43.768Z,21.88
2016-11-22T11:10:44.109Z,21.84
2016-11-22T11:11:44.132Z,21.79
2016-11-22T11:12:43.856Z,21.92
2016-11-22T11:13:43.891Z,21.9
2016-11-22T11:14:43.917Z,21.88
2016-11-22T11:15:43.633Z,21.91
2016-11-22T11:16:43.965Z,21.84
2016-11-22T11:17:44.298Z,21.91
2016-11-22T11:18:43.715Z,21.91
2016-11-22T11:19:43.748Z,21.9
2016-11-22T11:20:44.417Z,21.82
2016-11-22T11:21:44.421Z,21.91
2016-11-22T11:22:44.430Z,21.92
2016-11-22T11:23:44.167Z,21.88
2016-11-22T11:24:43.887Z,21.83
2016-11-22T11:25:44.520Z,21.92
2016-11-22T11:26:44.253Z,21.8
2016-11-22T11:27:44.277Z,21.88
2016-11-22T11:28:44.607Z,21.91
2016-11-22T11:29:44.635Z,21.84
2016-11-22T11:30:44.352Z,21.91
2016-11-22T11:31:44.681Z,21.88
2016-11-22T11:32:44.710Z,21.86
2016-11-22T11:33:44.738Z,21.84
2016-11-22T11:34:44.455Z,21.86
2016-11-22T11:35:44.796Z,21.94
2016-11-22T11:36:44.522Z,21.82
2016-11-22T11:37:44.561Z,21.91
2016-11-22T11:38:44.882Z,21.84
2016-11-22T11:39:44.602Z,21.8
2016-11-22T11:40:44.939Z,21.79
2016-11-22T11:41:44.972Z,21.9
2016-11-22T11:42:44.408Z,21.94
2016-11-22T11:43:45.018Z,21.83
2016-11-22T11:44:45.050Z,21.91
2016-11-22T11:45:45.114Z,21.88
2016-11-22T11:46:44.500Z,21.77
2016-11-22T11:47:45.152Z,21.83
2016-11-22T11:48:45.165Z,21.77
2016-11-22T11:49:45.187Z,21.88
2016-11-22T11:50:44.606Z,21.92
2016-11-22T11:51:45.251Z,21.94
2016-11-22T11:52:45.276Z,21.96
2016-11-22T11:53:44.996Z,21.84
2016-11-22T11:54:45.021Z,21.9
2016-11-22T11:55:45.065Z,21.92
2016-11-22T11:56:45.386Z,21.99
2016-11-22T11:57:45.403Z,22.05
2016-11-22T11:58:45.447Z,22.06
2016-11-22T11:59:44.877Z,22.05
2016-11-22T12:00:44.885Z,22.07
2016-11-22T12:01:45.537Z,22.09
2016-11-22T12:02:45.239Z,22.05
2016-11-22T12:03:45.007Z,22.1
2016-11-22T12:04:45.604Z,22.12
2016-11-22T12:05:45.629Z,22.1
2016-11-22T12:06:45.057Z,22.09
2016-11-22T12:07:45.698Z,22.2
2016-11-22T12:08:45.719Z,22.07
2016-11-22T12:09:45.747Z,22.09
2016-11-22T12:10:45.781Z,22.14
2016-11-22T12:11:45.821Z,22.1
2016-11-22T12:12:45.538Z,22.18
2016-11-22T12:13:45.571Z,22.15
2016-11-22T12:14:45.588Z,22.18
2016-11-22T12:15:45.912Z,22.18
2016-11-22T12:16:45.957Z,22.2
2016-11-22T12:17:45.973Z,22.24
2016-11-22T12:18:46.003Z,22.22
2016-11-22T12:19:46.035Z,22.33
2016-11-22T12:20:46.068Z,22.21
2016-11-22T12:21:46.084Z,22.37
2016-11-22T12:22:46.109Z,22.28
2016-11-22T12:23:46.156Z,22.42
2016-11-22T12:24:46.187Z,22.39
2016-11-22T12:25:45.903Z,22.39
2016-11-22T12:26:45.619Z,22.37
2016-11-22T12:27:46.257Z,22.4
2016-11-22T12:28:45.985Z,22.39
2016-11-22T12:29:46.306Z,22.37
2016-11-22T12:30:46.038Z,22.39
2016-11-22T12:31:46.381Z,22.37
2016-11-22T12:32:46.096Z,22.42
2016-11-22T12:33:46.429Z,22.42
2016-11-22T12:34:46.141Z,22.33
2016-11-22T12:35:46.482Z,22.36
2016-11-22T12:36:46.516Z,22.33
2016-11-22T12:37:45.932Z,22.36
2016-11-22T12:38:46.260Z,22.37
2016-11-22T12:39:46.297Z,22.36
2016-11-22T12:40:46.321Z,22.35
2016-11-22T12:41:46.053Z,22.37
2016-11-22T12:42:46.687Z,22.39
2016-11-22T12:43:46.723Z,22.36
2016-11-22T12:44:46.751Z,22.36
2016-11-22T12:45:46.460Z,22.37
2016-11-22T12:46:46.513Z,22.37
2016-11-22T12:47:46.514Z,22.36
2016-11-22T12:48:46.550Z,22.24
2016-11-22T12:49:46.582Z,22.27
2016-11-22T12:50:46.899Z,22.3
2016-11-22T12:51:46.940Z,22.21
2016-11-22T12:52:46.647Z,22.36
2016-11-22T12:53:46.716Z,22.24
2016-11-22T12:54:47.016Z,22.25
2016-11-22T12:55:47.051Z,22.31
2016-11-22T12:56:46.474Z,22.33
2016-11-22T12:57:46.802Z,22.27
2016-11-22T12:58:46.531Z,22.31
2016-11-22T12:59:47.168Z,22.25
2016-11-22T13:00:46.893Z,22.21
2016-11-22T13:01:46.912Z,22.21